Time;durP1;ratioP1;P1;durP2;ratioP2;P2;SDS_P1;SDS_P2;PMS_P1;PMS_P2;Temp;Humidity;BMP_temperature;BMP_pressure;BME280_temperature;BME280_humidity;BME280_pressure;Samples;Min_cycle;Max_cycle;Signal;HPM_P1;HPM_P2
2023/10/27 00:00:53;;;;;;;28.85;21.88;;;;;;;11.85;89.08;99104.47;5044671;28;20091;-62
2023/10/27 00:03:19;;;;;;;29.25;22.10;;;;;;;11.84;88.59;99111.16;5031462;28;20037;-62
2023/10/27 00:05:44;;;;;;;28.35;21.73;;;;;;;11.83;88.90;99106.75;5038459;28;20144;-62
2023/10/27 00:08:10;;;;;;;27.23;21.65;;;;;;;11.85;88.76;99107.25;5042600;28;20107;-62
2023/10/27 00:10:36;;;;;;;27.52;21.80;;;;;;;11.86;88.65;99110.84;5037216;28;20112;-62
2023/10/27 00:13:01;;;;;;;27.88;22.50;;;;;;;11.87;88.52;99099.44;5038732;28;20029;-62
2023/10/27 00:15:27;;;;;;;29.35;22.25;;;;;;;11.87;88.76;99102.22;5050591;28;20021;-62
2023/10/27 00:17:52;;;;;;;31.10;22.42;;;;;;;11.83;88.79;99106.75;5064954;28;20035;-62
2023/10/27 00:20:17;;;;;;;29.42;22.60;;;;;;;11.86;88.75;99113.63;5055264;28;20028;-62
2023/10/27 00:22:42;;;;;;;30.80;22.30;;;;;;;11.83;88.85;99103.97;5043345;28;20056;-62
2023/10/27 00:25:08;;;;;;;32.70;23.30;;;;;;;11.83;88.55;99097.53;5061482;28;20510;-62
2023/10/27 00:27:33;;;;;;;34.42;23.40;;;;;;;11.83;88.73;99100.28;5058379;28;20020;-62
2023/10/27 00:30:07;;;;;;;34.83;24.48;;;;;;;11.85;89.06;99095.31;5067690;28;20029;-63
2023/10/27 00:32:32;;;;;;;30.42;23.42;;;;;;;11.83;88.82;99092.84;5055772;28;20031;-62
2023/10/27 00:34:57;;;;;;;36.40;23.73;;;;;;;11.82;88.90;99096.69;5049106;28;20384;-62
2023/10/27 00:37:23;;;;;;;36.17;24.42;;;;;;;11.83;88.62;99087.28;5054735;28;20376;-62
2023/10/27 00:39:48;;;;;;;30.00;22.48;;;;;;;11.84;88.74;99091.72;5056298;28;20021;-62
2023/10/27 00:42:13;;;;;;;35.95;24.00;;;;;;;11.80;88.92;99087.84;5067419;28;20494;-62
2023/10/27 00:44:38;;;;;;;33.50;23.30;;;;;;;11.80;88.69;99085.06;5047792;28;20025;-62
2023/10/27 00:47:04;;;;;;;32.80;23.35;;;;;;;11.77;89.16;99083.72;5051144;28;20035;-62
2023/10/27 00:49:30;;;;;;;30.33;22.42;;;;;;;11.79;88.82;99092.59;5034903;28;20037;-63
2023/10/27 00:51:55;;;;;;;35.30;24.33;;;;;;;11.79;88.92;99091.78;5049553;28;20123;-62
2023/10/27 00:54:21;;;;;;;28.80;22.27;;;;;;;11.78;89.40;99084.53;5050206;28;20021;-62
2023/10/27 00:56:49;;;;;;;30.42;23.05;;;;;;;11.81;88.95;99083.94;5050533;28;20025;-62
2023/10/27 00:59:15;;;;;;;29.40;22.23;;;;;;;11.80;89.13;99088.69;5051379;28;20036;-62
2023/10/27 01:01:42;;;;;;;32.47;23.15;;;;;;;11.81;89.30;99078.38;5041029;28;20029;-62
2023/10/27 01:04:11;;;;;;;30.48;21.58;;;;;;;11.82;89.06;99080.03;5038114;28;20091;-62
2023/10/27 01:06:36;;;;;;;29.83;21.52;;;;;;;11.77;89.03;99078.16;5038106;28;20095;-62
2023/10/27 01:09:02;;;;;;;29.38;22.23;;;;;;;11.80;88.86;99077.56;5048968;28;20037;-62
2023/10/27 01:11:28;;;;;;;27.17;20.63;;;;;;;11.83;88.92;99064.16;5049979;28;20032;-62
2023/10/27 01:13:54;;;;;;;31.15;21.20;;;;;;;11.83;88.97;99066.94;5043137;28;20112;-62
2023/10/27 01:16:21;;;;;;;34.90;23.02;;;;;;;11.79;88.99;99075.91;5032842;28;20029;-62
2023/10/27 01:18:46;;;;;;;33.90;21.05;;;;;;;11.81;89.29;99070.03;5050119;28;20033;-62
2023/10/27 01:21:11;;;;;;;30.00;21.58;;;;;;;11.84;89.14;99074.22;5036608;28;20035;-62
2023/10/27 01:23:37;;;;;;;26.90;21.63;;;;;;;11.82;89.26;99073.63;5044271;28;20056;-62
2023/10/27 01:26:03;;;;;;;35.03;21.25;;;;;;;11.81;89.19;99067.25;5029915;28;20084;-62
2023/10/27 01:28:29;;;;;;;28.92;20.45;;;;;;;11.83;89.28;99075.28;5030916;28;20040;-62
2023/10/27 01:30:55;;;;;;;28.27;20.08;;;;;;;11.82;88.95;99071.69;5036947;28;20033;-62
2023/10/27 01:33:21;;;;;;;24.13;19.88;;;;;;;11.83;89.00;99070.59;5048252;28;20052;-62
2023/10/27 01:35:47;;;;;;;32.38;20.10;;;;;;;11.83;89.19;99073.38;5046022;28;20903;-62
2023/10/27 01:38:12;;;;;;;28.30;19.83;;;;;;;11.85;88.81;99070.28;5035460;28;20028;-63
2023/10/27 01:40:37;;;;;;;29.55;19.77;;;;;;;11.82;89.10;99068.91;5044598;28;20030;-62
2023/10/27 01:43:03;;;;;;;28.23;19.67;;;;;;;11.85;88.88;99073.88;5033348;28;20025;-62
2023/10/27 01:45:28;;;;;;;26.55;19.23;;;;;;;11.83;89.15;99065.03;5030478;28;20037;-62
2023/10/27 01:47:53;;;;;;;30.70;19.58;;;;;;;11.82;89.00;99063.34;5039421;28;20030;-62
2023/10/27 01:50:18;;;;;;;26.52;18.45;;;;;;;11.84;88.97;99060.31;5034417;28;20033;-63
2023/10/27 01:52:45;;;;;;;25.55;16.85;;;;;;;11.84;88.87;99068.66;5030274;28;20393;-62
2023/10/27 01:55:10;;;;;;;23.48;16.70;;;;;;;11.82;88.70;99063.34;5030091;28;20103;-62
2023/10/27 01:57:35;;;;;;;24.38;17.42;;;;;;;11.84;88.91;99055.56;5032031;28;20068;-62
2023/10/27 02:00:00;;;;;;;24.55;16.60;;;;;;;11.83;88.74;99062.25;5028847;28;20095;-62
2023/10/27 02:02:26;;;;;;;23.60;16.48;;;;;;;11.81;88.93;99056.13;5030347;28;20036;-63
2023/10/27 02:04:51;;;;;;;24.63;16.73;;;;;;;11.82;89.02;99063.34;5029213;28;20026;-62
2023/10/27 02:07:16;;;;;;;26.63;16.98;;;;;;;11.81;89.07;99050.59;5037059;28;20028;-62
2023/10/27 02:09:43;;;;;;;23.92;15.98;;;;;;;11.81;88.96;99058.91;5031154;28;20518;-62
2023/10/27 02:12:09;;;;;;;20.45;15.45;;;;;;;11.79;88.82;99048.13;5045041;28;20534;-62
2023/10/27 02:14:35;;;;;;;24.35;16.73;;;;;;;11.80;89.20;99052.53;5038094;28;20032;-63
2023/10/27 02:17:03;;;;;;;23.80;15.68;;;;;;;11.78;88.86;99045.63;5050599;28;20090;-62
2023/10/27 02:19:28;;;;;;;24.08;15.63;;;;;;;11.79;89.03;99045.34;5050297;28;20036;-62
2023/10/27 02:21:54;;;;;;;24.42;16.13;;;;;;;11.78;88.85;99043.66;5049394;28;20492;-62
2023/10/27 02:24:19;;;;;;;23.17;15.52;;;;;;;11.79;89.41;99036.19;5042240;28;20126;-62
2023/10/27 02:26:44;;;;;;;21.85;14.88;;;;;;;11.78;88.83;99040.06;5029888;28;20022;-62
2023/10/27 02:29:10;;;;;;;21.83;14.57;;;;;;;11.77;88.86;99039.25;5034940;28;20061;-62
2023/10/27 02:31:35;;;;;;;21.75;14.15;;;;;;;11.79;88.83;99037.00;5041255;28;20040;-62
2023/10/27 02:34:00;;;;;;;23.05;14.07;;;;;;;11.78;88.74;99032.53;5034941;28;20033;-62
2023/10/27 02:36:29;;;;;;;20.95;12.50;;;;;;;11.77;88.80;99036.47;5035783;28;20036;-62
2023/10/27 02:38:55;;;;;;;19.77;12.85;;;;;;;11.78;88.94;99029.75;5034964;28;20030;-62
2023/10/27 02:41:20;;;;;;;20.52;13.02;;;;;;;11.79;88.82;99033.41;5031424;28;20029;-64
2023/10/27 02:43:45;;;;;;;18.80;12.30;;;;;;;11.78;88.45;99037.28;5036474;28;20112;-63
2023/10/27 02:46:12;;;;;;;17.88;12.13;;;;;;;11.76;88.16;99029.25;5045776;28;20040;-64
2023/10/27 02:48:37;;;;;;;19.38;11.30;;;;;;;11.73;88.46;99031.81;5044819;28;20031;-63
2023/10/27 02:51:03;;;;;;;19.02;11.00;;;;;;;11.75;88.38;99026.78;5053658;28;20103;-63
2023/10/27 02:53:28;;;;;;;19.02;10.88;;;;;;;11.76;88.56;99032.03;5055669;28;20035;-63
2023/10/27 02:56:08;;;;;;;18.15;9.95;;;;;;;11.77;88.32;99021.75;5052264;28;20103;-63
2023/10/27 02:58:33;;;;;;;16.50;10.77;;;;;;;11.73;88.64;99021.53;5052988;28;20021;-63
2023/10/27 03:00:59;;;;;;;19.88;10.15;;;;;;;11.74;88.29;99019.56;5052459;28;20048;-63
2023/10/27 03:03:27;;;;;;;19.25;9.70;;;;;;;11.72;88.56;99013.50;5052170;28;20056;-63
2023/10/27 03:05:52;;;;;;;19.98;9.45;;;;;;;11.69;87.91;99019.66;5051933;28;20029;-62
2023/10/27 03:08:18;;;;;;;20.30;9.57;;;;;;;11.69;88.11;99016.91;5053104;28;20035;-62
2023/10/27 03:10:43;;;;;;;18.05;10.15;;;;;;;11.68;88.20;99018.03;5045654;28;20672;-62
2023/10/27 03:13:08;;;;;;;15.15;8.95;;;;;;;11.69;88.34;99012.16;5041772;28;20037;-62
2023/10/27 03:15:35;;;;;;;16.83;8.77;;;;;;;11.71;88.14;99017.41;5053133;28;20046;-63
2023/10/27 03:18:01;;;;;;;18.13;8.57;;;;;;;11.71;87.97;99014.63;5061819;28;20048;-63
2023/10/27 03:20:26;;;;;;;15.65;8.38;;;;;;;11.70;87.99;99012.97;5033149;28;20473;-63
2023/10/27 03:22:51;;;;;;;12.52;7.93;;;;;;;11.71;88.37;99006.28;5049613;28;20067;-63
2023/10/27 03:25:16;;;;;;;15.80;8.52;;;;;;;11.73;88.10;99015.16;5052052;28;20064;-63
2023/10/27 03:27:42;;;;;;;17.25;8.77;;;;;;;11.71;88.51;99009.06;5052828;28;20025;-63
2023/10/27 03:30:08;;;;;;;14.20;7.88;;;;;;;11.69;88.47;99008.56;5050338;28;20048;-63
2023/10/27 03:32:33;;;;;;;16.88;9.02;;;;;;;11.71;88.43;99009.06;5051052;28;20029;-62
2023/10/27 03:35:00;;;;;;;17.08;8.02;;;;;;;11.73;88.46;99006.81;5050075;28;20094;-62
2023/10/27 03:37:25;;;;;;;12.60;8.50;;;;;;;11.72;88.23;99003.22;5057488;28;20444;-63
2023/10/27 03:39:51;;;;;;;17.13;8.48;;;;;;;11.71;87.94;99004.34;5049988;28;20048;-62
2023/10/27 03:42:16;;;;;;;15.93;8.25;;;;;;;11.74;88.38;99000.94;5052637;28;20021;-62
2023/10/27 03:44:41;;;;;;;16.38;8.00;;;;;;;11.76;88.24;99004.25;5046816;28;20128;-62
2023/10/27 03:47:07;;;;;;;15.05;7.82;;;;;;;11.75;88.42;99007.31;5048157;28;20032;-62
2023/10/27 03:49:32;;;;;;;14.70;7.65;;;;;;;11.75;88.28;98999.84;5042800;28;20037;-62
2023/10/27 03:51:59;;;;;;;16.55;7.72;;;;;;;11.75;88.21;99001.75;5047695;28;20036;-63
2023/10/27 03:54:24;;;;;;;15.43;8.13;;;;;;;11.75;87.95;99001.75;5054293;28;20032;-62
2023/10/27 03:56:50;;;;;;;11.15;7.35;;;;;;;11.75;88.34;98999.84;5048597;28;20045;-62
2023/10/27 03:59:18;;;;;;;15.18;7.70;;;;;;;11.72;87.86;99007.94;5042276;28;20087;-62
2023/10/27 04:01:43;;;;;;;12.93;7.38;;;;;;;11.72;87.94;99005.16;5041057;28;20021;-62
2023/10/27 04:04:09;;;;;;;13.82;7.30;;;;;;;11.74;87.97;99000.94;5030489;28;20103;-62
2023/10/27 04:06:35;;;;;;;10.80;7.47;;;;;;;11.73;87.95;99001.25;5031213;28;20425;-62
2023/10/27 04:09:00;;;;;;;15.73;7.47;;;;;;;11.72;88.18;98992.09;5031827;28;20117;-62
2023/10/27 04:11:25;;;;;;;11.35;7.35;;;;;;;11.73;88.10;98990.97;5041644;28;20102;-62
2023/10/27 04:13:50;;;;;;;15.10;7.03;;;;;;;11.73;88.17;98999.28;5049740;28;20064;-63
2023/10/27 04:16:16;;;;;;;11.60;7.28;;;;;;;11.74;88.32;98992.59;5047258;28;20040;-62
2023/10/27 04:18:41;;;;;;;12.05;7.13;;;;;;;11.71;87.95;98997.94;5048501;28;20496;-62
2023/10/27 04:21:06;;;;;;;11.07;6.82;;;;;;;11.72;87.95;99003.22;5055909;28;20055;-62
2023/10/27 04:23:34;;;;;;;12.57;6.93;;;;;;;11.74;88.17;99005.69;5061220;28;20118;-62
2023/10/27 04:25:59;;;;;;;11.50;6.75;;;;;;;11.70;88.13;99001.84;5067804;28;20048;-62
2023/10/27 04:28:28;;;;;;;10.52;6.45;;;;;;;11.73;87.90;98998.47;5048056;28;20377;-62
2023/10/27 04:30:53;;;;;;;15.52;7.63;;;;;;;11.70;88.29;99002.69;5044010;28;20091;-62
2023/10/27 04:33:20;;;;;;;12.93;6.80;;;;;;;11.70;88.29;98999.09;5052049;28;20021;-62
2023/10/27 04:35:48;;;;;;;11.07;6.47;;;;;;;11.72;88.32;98996.84;5051734;28;20093;-63
2023/10/27 04:38:14;;;;;;;11.95;6.63;;;;;;;11.71;88.30;98997.94;5061740;28;20108;-62
2023/10/27 04:40:39;;;;;;;16.58;7.10;;;;;;;11.73;87.83;98995.69;5053656;28;20037;-62
2023/10/27 04:43:04;;;;;;;14.18;6.65;;;;;;;11.74;87.94;99000.13;5062346;28;20020;-63
2023/10/27 04:45:30;;;;;;;11.43;6.90;;;;;;;11.72;88.13;99002.41;5061311;28;20112;-62
2023/10/27 04:47:55;;;;;;;11.70;6.18;;;;;;;11.73;87.80;99001.25;5052245;28;20088;-63
2023/10/27 04:50:24;;;;;;;13.43;6.47;;;;;;;11.72;88.23;99002.41;5070086;28;20044;-62
2023/10/27 04:52:53;;;;;;;12.98;7.10;;;;;;;11.71;88.05;99000.72;5060709;28;20048;-62
2023/10/27 04:55:19;;;;;;;13.13;6.65;;;;;;;11.73;88.11;98992.91;5044367;28;20417;-63
2023/10/27 04:57:44;;;;;;;12.73;6.53;;;;;;;11.72;88.20;98994.88;5043602;28;20542;-62
2023/10/27 05:00:11;;;;;;;13.73;7.40;;;;;;;11.74;87.91;98991.78;5049402;28;20036;-63
2023/10/27 05:02:36;;;;;;;14.90;6.82;;;;;;;11.74;88.15;98994.56;5044273;28;20038;-61
2023/10/27 05:05:02;;;;;;;12.60;6.68;;;;;;;11.74;87.97;98984.25;5042434;28;20041;-62
2023/10/27 05:07:28;;;;;;;11.98;6.78;;;;;;;11.72;88.28;98989.31;5059574;28;20017;-63
2023/10/27 05:09:53;;;;;;;11.98;6.57;;;;;;;11.72;87.90;98982.94;5042858;28;20443;-63
2023/10/27 05:12:19;;;;;;;12.88;7.18;;;;;;;11.74;87.96;98989.00;5050486;28;20074;-63
2023/10/27 05:14:44;;;;;;;13.43;7.05;;;;;;;11.73;88.02;98984.59;5057436;28;20452;-64
2023/10/27 05:17:09;;;;;;;14.38;7.55;;;;;;;11.70;87.73;98986.00;5061035;28;20043;-63
2023/10/27 05:19:35;;;;;;;11.98;7.03;;;;;;;11.72;88.44;98980.16;5046573;28;20068;-63
2023/10/27 05:22:05;;;;;;;12.50;7.10;;;;;;;11.71;88.48;98981.25;5049587;28;20032;-63
2023/10/27 05:24:32;;;;;;;11.95;6.95;;;;;;;11.70;88.57;98985.19;5062678;28;20388;-64
2023/10/27 05:26:57;;;;;;;13.60;7.63;;;;;;;11.71;88.23;98982.13;5060276;28;20068;-63
2023/10/27 05:29:22;;;;;;;14.27;7.90;;;;;;;11.71;88.24;98982.13;5038622;28;20053;-63
2023/10/27 05:31:48;;;;;;;11.80;8.43;;;;;;;11.75;87.77;98973.97;5042422;28;20503;-63
2023/10/27 05:34:15;;;;;;;12.30;8.50;;;;;;;11.72;88.34;98972.66;5048453;28;20021;-63
2023/10/27 05:36:40;;;;;;;11.95;8.85;;;;;;;11.72;88.43;98974.59;5050948;28;20025;-63
2023/10/27 05:39:06;;;;;;;11.73;8.18;;;;;;;11.75;88.26;98973.97;5035906;28;20033;-63
2023/10/27 05:41:31;;;;;;;12.95;8.43;;;;;;;11.76;88.30;98970.06;5036114;28;20075;-63
2023/10/27 05:43:56;;;;;;;12.40;8.43;;;;;;;11.76;88.03;98968.13;5033408;28;20412;-62
2023/10/27 05:46:22;;;;;;;11.70;8.63;;;;;;;11.76;88.09;98978.41;5046933;28;20423;-63
2023/10/27 05:48:47;;;;;;;13.00;8.55;;;;;;;11.74;87.72;98972.31;5046512;28;20032;-62
2023/10/27 05:51:12;;;;;;;11.95;8.77;;;;;;;11.71;87.94;98976.56;5045154;28;20037;-62
2023/10/27 05:53:37;;;;;;;13.68;8.40;;;;;;;11.74;88.09;98977.88;5028986;28;20025;-63
2023/10/27 05:56:03;;;;;;;11.85;8.82;;;;;;;11.72;87.95;98975.41;5048670;28;20033;-62
2023/10/27 05:58:32;;;;;;;10.70;8.15;;;;;;;11.73;87.84;98979.03;5044890;28;20029;-62
2023/10/27 06:00:58;;;;;;;14.27;8.00;;;;;;;11.72;88.15;98974.59;5030215;28;20481;-62
2023/10/27 06:03:24;;;;;;;10.80;7.90;;;;;;;11.74;88.20;98975.09;5042102;28;20071;-65
2023/10/27 06:05:51;;;;;;;12.75;8.68;;;;;;;11.70;87.97;98983.22;5034770;28;20053;-62
2023/10/27 06:08:19;;;;;;;11.75;8.43;;;;;;;11.71;88.20;98976.56;5047490;28;20024;-61
2023/10/27 06:10:45;;;;;;;10.25;8.02;;;;;;;11.73;88.14;98981.81;5038903;28;20438;-61
2023/10/27 06:13:12;;;;;;;12.40;8.52;;;;;;;11.73;88.21;98981.81;5042597;28;20018;-61
2023/10/27 06:15:37;;;;;;;9.93;7.97;;;;;;;11.71;88.05;98992.38;5045880;28;20056;-61
2023/10/27 06:18:06;;;;;;;13.05;8.15;;;;;;;11.77;89.15;98992.00;5042721;28;20511;-61
2023/10/27 06:20:31;;;;;;;10.70;7.85;;;;;;;11.76;88.30;98983.97;5038420;28;20461;-61
2023/10/27 06:22:56;;;;;;;10.60;7.55;;;;;;;11.74;88.23;98989.81;5042077;28;20033;-61
2023/10/27 06:25:25;;;;;;;8.52;7.32;;;;;;;11.75;87.99;98991.50;5052067;28;20071;-61
2023/10/27 06:27:52;;;;;;;10.25;7.45;;;;;;;11.77;88.27;98985.63;5042945;28;20480;-61
2023/10/27 06:30:18;;;;;;;10.25;7.82;;;;;;;11.76;88.25;98986.75;5041163;28;20437;-62
2023/10/27 06:32:43;;;;;;;8.73;7.25;;;;;;;11.73;88.05;98990.97;5046449;28;20060;-61
2023/10/27 06:35:08;;;;;;;11.23;8.02;;;;;;;11.76;87.89;98992.31;5037713;28;20063;-61
2023/10/27 06:37:35;;;;;;;10.80;7.32;;;;;;;11.73;87.79;98993.75;5040579;28;20078;-62
2023/10/27 06:40:01;;;;;;;9.00;6.78;;;;;;;11.77;88.04;98993.94;5042762;28;20037;-62
2023/10/27 06:42:26;;;;;;;9.55;7.78;;;;;;;11.74;87.86;98991.78;5043865;28;20383;-61
2023/10/27 06:44:54;;;;;;;11.63;7.95;;;;;;;11.73;87.79;98992.91;5049236;28;20045;-62
2023/10/27 06:47:20;;;;;;;8.25;7.32;;;;;;;11.73;87.97;98996.53;5039536;28;20029;-61
2023/10/27 06:49:48;;;;;;;10.65;7.25;;;;;;;11.70;88.05;98997.13;5043875;28;20495;-62
2023/10/27 06:52:13;;;;;;;8.23;7.07;;;;;;;11.72;88.20;99000.44;5041632;28;20169;-61
2023/10/27 06:54:40;;;;;;;10.30;7.38;;;;;;;11.72;88.05;99010.72;5046394;28;20120;-61
2023/10/27 06:57:07;;;;;;;8.82;7.53;;;;;;;11.70;88.13;99004.63;5051303;28;20460;-61
2023/10/27 06:59:35;;;;;;;10.30;7.45;;;;;;;11.70;88.66;99010.19;5051944;28;20029;-61
2023/10/27 07:02:00;;;;;;;9.68;7.07;;;;;;;11.70;88.09;99008.25;5043911;28;20105;-61
2023/10/27 07:04:26;;;;;;;9.13;6.65;;;;;;;11.72;87.80;99016.28;5039989;28;21032;-62
2023/10/27 07:06:51;;;;;;;8.68;6.88;;;;;;;11.71;88.19;99011.84;5031690;28;20042;-60
2023/10/27 07:09:16;;;;;;;8.60;6.50;;;;;;;11.72;88.17;99005.16;5031738;28;20034;-60
2023/10/27 07:11:42;;;;;;;7.82;6.57;;;;;;;11.73;88.05;99009.59;5033682;28;20025;-60
2023/10/27 07:14:08;;;;;;;9.25;6.53;;;;;;;11.72;88.05;99013.50;5037518;28;20056;-60
2023/10/27 07:16:34;;;;;;;7.50;6.63;;;;;;;11.73;87.98;99020.72;5030759;28;20021;-60
2023/10/27 07:18:59;;;;;;;8.68;6.70;;;;;;;11.73;87.74;99015.97;5060426;28;20025;-61
2023/10/27 07:21:24;;;;;;;7.78;7.00;;;;;;;11.71;87.79;99023.81;5045504;28;20032;-61
2023/10/27 07:23:50;;;;;;;7.03;6.35;;;;;;;11.72;88.11;99030.19;5050732;28;20058;-61
2023/10/27 07:26:17;;;;;;;7.22;6.53;;;;;;;11.72;88.18;99025.44;5052201;28;20040;-60
2023/10/27 07:28:43;;;;;;;7.28;6.57;;;;;;;11.71;87.91;99034.94;5051424;28;20039;-61
2023/10/27 07:31:09;;;;;;;7.05;6.07;;;;;;;11.72;87.82;99030.19;5051078;28;20028;-61
2023/10/27 07:33:38;;;;;;;7.63;6.85;;;;;;;11.70;87.91;99030.47;5051574;28;20028;-61
2023/10/27 07:36:04;;;;;;;6.75;6.07;;;;;;;11.71;88.11;99034.94;5043127;28;20048;-61
2023/10/27 07:38:34;;;;;;;7.43;6.72;;;;;;;11.70;88.26;99033.25;5033373;28;20032;-62
2023/10/27 07:40:59;;;;;;;6.68;6.07;;;;;;;11.72;88.17;99041.31;5041447;28;20028;-61
2023/10/27 07:43:25;;;;;;;6.43;5.82;;;;;;;11.72;88.27;99042.13;5041270;28;20377;-62
2023/10/27 07:45:51;;;;;;;7.28;6.25;;;;;;;11.70;88.03;99049.94;5049728;28;20036;-61
2023/10/27 07:48:16;;;;;;;6.88;6.22;;;;;;;11.70;88.21;99047.16;5049227;28;20032;-62
2023/10/27 07:50:42;;;;;;;7.57;6.65;;;;;;;11.70;88.57;99049.09;5049535;28;20037;-62
2023/10/27 07:53:08;;;;;;;8.02;7.22;;;;;;;11.70;88.73;99049.94;5040559;28;20031;-63
2023/10/27 07:55:33;;;;;;;7.00;6.35;;;;;;;11.72;88.44;99055.19;5046162;28;20025;-61
2023/10/27 07:57:58;;;;;;;6.30;5.80;;;;;;;11.72;88.44;99052.41;5048191;28;20029;-61
2023/10/27 08:00:24;;;;;;;8.10;7.05;;;;;;;11.72;88.33;99053.25;5049073;28;20487;-61
2023/10/27 08:02:52;;;;;;;6.88;6.18;;;;;;;11.74;88.89;99058.47;5050849;28;20031;-62
2023/10/27 08:05:20;;;;;;;7.05;6.45;;;;;;;11.76;88.98;99064.56;5041325;28;20107;-61
2023/10/27 08:07:46;;;;;;;6.97;6.38;;;;;;;11.75;88.89;99060.13;5053392;28;20048;-62
2023/10/27 08:10:11;;;;;;;7.07;6.38;;;;;;;11.73;89.07;99066.00;5040153;28;20033;-61
2023/10/27 08:12:37;;;;;;;8.98;7.63;;;;;;;11.73;89.14;99066.00;5036621;28;20041;-61
2023/10/27 08:15:06;;;;;;;7.22;6.53;;;;;;;11.74;88.99;99050.97;5045309;28;20070;-62
2023/10/27 08:17:33;;;;;;;7.43;6.72;;;;;;;11.76;88.77;99047.91;5049270;28;20033;-61
2023/10/27 08:19:58;;;;;;;6.88;6.28;;;;;;;11.72;88.50;99050.47;5046937;28;20028;-62
2023/10/27 08:22:23;;;;;;;7.32;6.50;;;;;;;11.75;88.78;99068.47;5045496;28;20071;-62
2023/10/27 08:24:52;;;;;;;7.32;6.63;;;;;;;11.75;89.05;99071.25;5047980;28;20047;-63
2023/10/27 08:27:17;;;;;;;7.63;6.80;;;;;;;11.77;88.96;99077.34;5049018;28;20036;-62
2023/10/27 08:29:42;;;;;;;7.95;7.15;;;;;;;11.76;89.00;99070.13;5040659;28;20110;-61
2023/10/27 08:32:08;;;;;;;7.13;6.50;;;;;;;11.78;89.47;99073.41;5046127;28;20032;-61
2023/10/27 08:34:35;;;;;;;6.85;5.78;;;;;;;11.79;89.46;99086.22;5038624;28;20104;-61
2023/10/27 08:37:00;;;;;;;7.60;5.97;;;;;;;11.78;89.17;99079.81;5048501;28;20035;-62
2023/10/27 08:39:25;;;;;;;6.75;6.10;;;;;;;11.81;89.50;99089.50;5036151;28;20033;-62
2023/10/27 08:41:51;;;;;;;7.25;6.63;;;;;;;11.81;89.17;99089.50;5050792;28;20522;-62
2023/10/27 08:44:18;;;;;;;9.02;6.60;;;;;;;11.79;89.66;99089.81;5034694;28;20042;-61
2023/10/27 08:46:44;;;;;;;6.78;6.18;;;;;;;11.77;89.34;99089.28;5042860;28;20044;-61
2023/10/27 08:49:09;;;;;;;6.38;5.78;;;;;;;11.80;89.68;99090.63;5039366;28;20361;-61
2023/10/27 08:51:35;;;;;;;7.10;6.50;;;;;;;11.77;89.81;99094.84;5042710;28;20025;-62
2023/10/27 08:54:01;;;;;;;5.97;5.47;;;;;;;11.77;89.93;99082.91;5047707;28;20075;-61
2023/10/27 08:56:26;;;;;;;6.05;5.45;;;;;;;11.79;89.86;99083.44;5048009;28;20063;-60
2023/10/27 08:58:52;;;;;;;7.80;5.57;;;;;;;11.81;89.73;99092.28;5051548;28;20025;-63
2023/10/27 09:01:17;;;;;;;5.95;5.32;;;;;;;11.82;89.88;99084.75;5048770;28;20083;-62
2023/10/27 09:04:19;;;;;;;7.20;5.90;;;;;;;11.87;90.06;99087.47;5047264;28;20396;-63
2023/10/27 09:06:44;;;;;;;7.63;6.60;;;;;;;11.83;89.44;99087.28;5045093;28;20494;-62
2023/10/27 09:09:09;;;;;;;7.07;6.43;;;;;;;11.83;89.46;99087.28;5046977;28;20021;-62
2023/10/27 09:11:56;;;;;;;7.10;6.40;;;;;;;11.88;90.13;99097.47;5047354;28;20029;-62
2023/10/27 09:14:26;;;;;;;8.63;6.43;;;;;;;11.86;89.94;99100.56;5030427;28;20036;-62
2023/10/27 09:17:03;;;;;;;8.27;7.40;;;;;;;11.88;89.82;99103.03;5037333;28;20109;-62
2023/10/27 09:19:28;;;;;;;8.68;7.78;;;;;;;11.87;89.91;99096.66;5039926;28;20100;-62
2023/10/27 09:21:54;;;;;;;7.65;6.85;;;;;;;11.88;89.85;99097.47;5048012;28;20033;-62
2023/10/27 09:24:26;;;;;;;8.35;7.45;;;;;;;11.87;89.74;99091.09;5036255;28;20068;-62
2023/10/27 09:26:53;;;;;;;8.18;7.38;;;;;;;11.90;90.05;99092.44;5046305;28;20072;-62
2023/10/27 09:29:19;;;;;;;9.15;7.70;;;;;;;11.89;89.75;99097.16;5045347;28;20031;-62
2023/10/27 09:31:45;;;;;;;9.55;7.45;;;;;;;11.89;89.79;99097.16;5046831;28;20029;-62
2023/10/27 09:34:23;;;;;;;8.23;7.43;;;;;;;11.92;90.19;99091.00;5045127;28;20115;-61
2023/10/27 09:36:52;;;;;;;8.50;7.60;;;;;;;11.91;89.89;99088.53;5049406;28;20065;-60
2023/10/27 09:39:19;;;;;;;9.68;7.32;;;;;;;11.93;89.80;99094.59;5047538;28;20040;-59
2023/10/27 09:41:47;;;;;;;8.00;6.63;;;;;;;11.92;89.47;99098.53;5043756;28;20396;-60
2023/10/27 09:44:16;;;;;;;7.82;7.03;;;;;;;11.93;89.72;99097.38;5044227;28;20022;-61
2023/10/27 09:46:54;;;;;;;8.60;7.63;;;;;;;11.97;90.31;99099.25;5038723;28;20055;-61
2023/10/27 09:49:29;;;;;;;7.53;6.78;;;;;;;11.96;90.10;99097.59;5048207;28;20032;-61
2023/10/27 09:51:58;;;;;;;9.25;7.45;;;;;;;12.00;90.53;99104.22;5047504;28;20104;-61
2023/10/27 09:54:30;;;;;;;9.70;8.20;;;;;;;11.99;90.25;99099.78;5052615;28;20047;-62
2023/10/27 09:56:57;;;;;;;10.35;8.52;;;;;;;12.03;90.48;99097.22;5049514;28;20028;-61
2023/10/27 09:59:26;;;;;;;9.73;8.30;;;;;;;12.06;89.97;99098.53;5052703;28;20397;-62
2023/10/27 10:01:56;;;;;;;9.23;8.00;;;;;;;12.07;90.23;99089.91;5044803;28;20147;-61
2023/10/27 10:04:52;;;;;;;10.68;8.15;;;;;;;12.11;90.70;99099.28;5038875;28;20034;-61
2023/10/27 10:07:28;;;;;;;11.10;8.90;;;;;;;12.11;90.37;99096.50;5049660;28;20419;-61
2023/10/27 10:09:53;;;;;;;14.05;10.25;;;;;;;12.09;90.17;99106.28;5049846;28;20076;-60
2023/10/27 10:12:18;;;;;;;14.13;10.90;;;;;;;12.08;90.11;99115.75;5054521;28;20053;-61
2023/10/27 10:14:45;;;;;;;13.05;10.77;;;;;;;12.09;90.24;99111.84;5053965;28;20134;-60
2023/10/27 10:17:10;;;;;;;16.70;12.20;;;;;;;12.09;90.55;99129.34;5048929;28;20029;-62
2023/10/27 10:19:52;;;;;;;16.63;12.82;;;;;;;12.13;90.49;99129.56;5040460;28;20052;-63
2023/10/27 10:22:42;;;;;;;13.73;11.57;;;;;;;12.14;90.24;99120.09;5054474;28;20029;-62
2023/10/27 10:25:19;;;;;;;12.85;10.85;;;;;;;12.09;90.40;99114.63;5051239;28;20045;-61
2023/10/27 10:28:09;;;;;;;13.80;10.75;;;;;;;12.10;90.51;99121.81;5055135;28;20360;-63
2023/10/27 10:30:41;;;;;;;13.43;10.70;;;;;;;12.07;90.55;99125.25;5071347;28;20033;-62
2023/10/27 10:33:19;;;;;;;11.90;10.65;;;;;;;12.08;90.36;99126.88;5050306;28;20033;-62
2023/10/27 10:35:46;;;;;;;13.65;11.13;;;;;;;12.07;90.23;99122.47;5046994;28;20027;-61
2023/10/27 10:38:23;;;;;;;12.65;10.68;;;;;;;12.07;90.89;99128.03;5042349;28;20433;-62
2023/10/27 10:40:59;;;;;;;11.23;9.35;;;;;;;12.04;90.02;99127.50;5047724;28;20111;-61
2023/10/27 10:43:33;;;;;;;12.32;10.05;;;;;;;12.04;90.74;99126.66;5048376;28;20351;-62
2023/10/27 10:46:03;;;;;;;14.23;11.48;;;;;;;12.03;90.07;99114.72;5047778;28;20033;-63
2023/10/27 10:48:30;;;;;;;13.90;11.90;;;;;;;12.06;90.50;99124.38;5044972;28;20058;-63
2023/10/27 10:51:00;;;;;;;18.55;13.45;;;;;;;12.06;90.27;99118.81;5039843;28;20048;-63
2023/10/27 10:53:26;;;;;;;16.88;14.60;;;;;;;12.07;90.50;99116.91;5047028;28;20036;-63
2023/10/27 10:55:58;;;;;;;18.55;13.98;;;;;;;12.08;90.27;99113.81;5041866;28;20255;-63
2023/10/27 10:58:24;;;;;;;17.10;13.93;;;;;;;12.10;91.29;99113.47;5039692;28;20037;-60
2023/10/27 11:00:51;;;;;;;15.45;13.15;;;;;;;12.09;90.51;99115.44;5037360;28;20025;-63
2023/10/27 11:03:17;;;;;;;16.98;13.55;;;;;;;12.09;90.73;99114.63;5055705;28;20032;-62
2023/10/27 11:05:43;;;;;;;16.05;13.40;;;;;;;12.11;91.14;99112.38;5045040;28;20178;-63
2023/10/27 11:08:09;;;;;;;15.57;12.48;;;;;;;12.13;91.16;99112.88;5053030;28;20040;-63
2023/10/27 11:10:35;;;;;;;15.80;12.38;;;;;;;12.15;91.12;99108.66;5043388;28;20032;-63
2023/10/27 11:13:09;;;;;;;19.52;13.13;;;;;;;12.18;91.24;99116.41;5046686;28;20024;-62
2023/10/27 11:15:48;;;;;;;15.80;11.65;;;;;;;12.20;91.22;99104.97;5044223;28;20036;-63
2023/10/27 11:18:15;;;;;;;14.13;10.88;;;;;;;12.20;91.43;99110.53;5048476;28;20155;-62
2023/10/27 11:20:44;;;;;;;15.55;9.48;;;;;;;12.21;90.59;99109.38;5043454;28;20025;-63
2023/10/27 11:23:14;;;;;;;12.55;9.50;;;;;;;12.21;91.14;99112.16;5046142;28;20384;-63